Time;durP1;ratioP1;P1;durP2;ratioP2;P2;SDS_P1;SDS_P2;PMS_P1;PMS_P2;Temp;Humidity;BMP_temperature;BMP_pressure;BME280_temperature;BME280_humidity;BME280_pressure;Samples;Min_cycle;Max_cycle;Signal;HPM_P1;HPM_P2
2022/04/03 00:01:37;;;;;;;22.60;9.10;;;;;;;0.47;73.57;97945.71;106120;1274;97963;-65
2022/04/03 00:04:07;;;;;;;21.10;9.80;;;;;;;0.43;73.65;97943.58;106078;1274;97837;-65
2022/04/03 00:06:35;;;;;;;24.40;10.40;;;;;;;0.42;73.65;97945.06;106088;1274;110695;-66
2022/04/03 00:09:05;;;;;;;20.40;9.30;;;;;;;0.44;73.73;97941.85;106133;1274;97869;-67
2022/04/03 00:11:35;;;;;;;21.40;9.00;;;;;;;0.42;73.69;97942.23;106131;1273;108143;-64
2022/04/03 00:14:04;;;;;;;21.30;8.20;;;;;;;0.44;73.65;97941.13;106129;1272;97981;-65
2022/04/03 00:16:35;;;;;;;20.50;8.60;;;;;;;0.41;73.66;97941.11;106123;1274;97988;-66
2022/04/03 00:19:07;;;;;;;18.60;8.70;;;;;;;0.36;73.50;97942.04;106131;1274;111988;-66
2022/04/03 00:21:39;;;;;;;20.10;8.40;;;;;;;0.35;73.63;97944.37;106210;1273;97896;-65
2022/04/03 00:24:08;;;;;;;20.40;7.70;;;;;;;0.32;73.68;97945.55;106191;1274;108393;-64
2022/04/03 00:26:40;;;;;;;19.60;8.40;;;;;;;0.26;73.49;97943.38;106154;1271;96457;-64
2022/04/03 00:29:09;;;;;;;18.70;8.20;;;;;;;0.26;73.57;97945.66;106109;1269;96968;-64
2022/04/03 00:31:37;;;;;;;20.60;9.10;;;;;;;0.25;73.58;97947.98;106117;1271;112025;-65
2022/04/03 00:34:07;;;;;;;19.60;8.50;;;;;;;0.25;73.69;97948.52;106154;1271;97883;-65
2022/04/03 00:36:37;;;;;;;20.40;8.80;;;;;;;0.25;73.62;97949.53;106120;1271;108244;-66
2022/04/03 00:39:06;;;;;;;21.60;8.40;;;;;;;0.24;73.57;97948.52;106129;1271;95195;-64
2022/04/03 00:41:37;;;;;;;22.30;10.10;;;;;;;0.22;73.61;97950.19;106052;1273;96268;-66
2022/04/03 00:44:08;;;;;;;20.10;9.10;;;;;;;0.25;73.63;97951.27;106193;1271;111473;-65
2022/04/03 00:46:36;;;;;;;19.10;8.60;;;;;;;0.24;73.56;97951.16;106147;1271;97887;-65
2022/04/03 00:49:05;;;;;;;20.00;8.70;;;;;;;0.19;73.44;97950.90;106161;1271;108090;-65
2022/04/03 00:51:38;;;;;;;22.50;9.80;;;;;;;0.18;73.64;97952.34;106223;1271;97928;-64
2022/04/03 00:54:09;;;;;;;24.90;11.40;;;;;;;0.18;73.72;97950.59;106118;1271;97817;-64
2022/04/03 00:56:37;;;;;;;22.70;9.90;;;;;;;0.18;73.59;97950.78;106071;1271;112304;-65
2022/04/03 00:59:13;;;;;;;23.30;10.30;;;;;;;0.15;73.68;97952.10;106101;1271;97978;-67
2022/04/03 01:01:45;;;;;;;16.80;7.90;;;;;;;0.14;73.54;97955.84;106068;1272;107764;-65
2022/04/03 01:04:14;;;;;;;21.90;9.90;;;;;;;0.13;73.61;97958.27;106057;1271;97889;-67
2022/04/03 01:06:44;;;;;;;21.60;10.00;;;;;;;0.14;73.68;97959.33;106203;1271;95258;-66
2022/04/03 01:09:15;;;;;;;22.60;9.20;;;;;;;0.15;73.68;97961.72;106189;1271;112053;-66
2022/04/03 01:11:46;;;;;;;19.40;9.10;;;;;;;0.17;73.58;97965.82;106158;1271;96382;-66
2022/04/03 01:14:35;;;;;;;22.70;10.00;;;;;;;0.16;73.63;97968.10;106158;1271;108432;-70
2022/04/03 01:17:07;;;;;;;21.50;8.90;;;;;;;0.17;73.64;97971.41;106205;1271;98430;-65
2022/04/03 01:19:35;;;;;;;22.50;9.70;;;;;;;0.17;73.64;97973.48;106172;1271;95195;-66
2022/04/03 01:22:10;;;;;;;22.80;9.60;;;;;;;0.19;73.62;97976.89;106118;1271;112018;-65
2022/04/03 01:24:44;;;;;;;22.30;10.20;;;;;;;0.19;73.67;97975.31;106179;1274;97897;-65
2022/04/03 01:27:12;;;;;;;22.80;9.70;;;;;;;0.18;73.55;97976.59;106102;1271;107279;-65
2022/04/03 01:29:40;;;;;;;22.90;9.90;;;;;;;0.16;73.52;97977.88;106116;1271;97967;-65
2022/04/03 01:32:10;;;;;;;21.30;9.30;;;;;;;0.16;73.51;97978.77;106218;1271;97911;-65
2022/04/03 01:34:40;;;;;;;21.30;9.10;;;;;;;0.17;73.63;97980.27;106124;1271;112028;-64
2022/04/03 01:37:08;;;;;;;22.20;9.50;;;;;;;0.20;73.66;97977.01;106201;1271;96331;-64
2022/04/03 01:39:39;;;;;;;23.40;10.60;;;;;;;0.21;73.58;97982.32;106119;1274;108157;-64
2022/04/03 01:42:09;;;;;;;24.40;10.20;;;;;;;0.22;73.68;97978.63;106095;1272;98023;-65
2022/04/03 01:44:39;;;;;;;22.80;10.60;;;;;;;0.24;73.62;97979.40;106207;1274;97908;-66
2022/04/03 01:47:08;;;;;;;21.40;10.30;;;;;;;0.23;73.61;97979.79;106214;1274;113889;-66
2022/04/03 01:49:36;;;;;;;20.40;10.00;;;;;;;0.23;73.59;97979.11;106208;1272;97931;-66
2022/04/03 01:52:09;;;;;;;24.50;12.80;;;;;;;0.20;73.51;97979.10;106144;1271;108893;-65
2022/04/03 01:54:36;;;;;;;25.90;12.60;;;;;;;0.19;73.51;97978.79;106059;1271;97979;-62
2022/04/03 01:57:07;;;;;;;26.60;13.60;;;;;;;0.17;73.57;97976.63;106130;1271;96282;-63
2022/04/03 01:59:36;;;;;;;26.80;13.70;;;;;;;0.16;73.55;97975.09;106132;1271;112522;-65
2022/04/03 02:02:05;;;;;;;26.50;13.30;;;;;;;0.18;73.57;97975.89;106180;1271;95257;-64
2022/04/03 02:04:34;;;;;;;27.30;14.10;;;;;;;0.19;73.63;97975.99;106156;1271;108402;-65
2022/04/03 02:07:03;;;;;;;28.20;15.80;;;;;;;0.18;73.54;97979.91;106114;1274;97889;-66
2022/04/03 02:09:32;;;;;;;26.80;14.80;;;;;;;0.13;73.35;97977.48;106109;1274;97907;-65
2022/04/03 02:12:00;;;;;;;30.50;16.90;;;;;;;0.08;73.45;97984.02;106073;1274;112010;-67
2022/04/03 02:14:27;;;;;;;28.80;16.00;;;;;;;0.06;73.60;97982.71;106102;1273;95733;-66
2022/04/03 02:17:01;;;;;;;32.40;16.90;;;;;;;0.04;73.44;97984.21;106100;1274;108408;-66
2022/04/03 02:19:29;;;;;;;31.80;17.20;;;;;;;0.02;73.57;97983.44;106110;1271;97993;-66
2022/04/03 02:21:57;;;;;;;33.70;17.10;;;;;;;0.02;73.53;97986.55;106153;1271;97876;-65
2022/04/03 02:24:25;;;;;;;31.70;17.90;;;;;;;0.03;73.75;97983.53;106105;1271;112099;-66
2022/04/03 02:26:56;;;;;;;35.40;19.20;;;;;;;0.03;73.51;97987.21;106151;1271;97950;-65
2022/04/03 02:29:26;;;;;;;33.70;19.10;;;;;;;-0.01;73.53;97984.06;106168;1271;108332;-65
2022/04/03 02:31:55;;;;;;;33.10;19.00;;;;;;;-0.03;73.49;97983.84;106075;1271;96278;-65
2022/04/03 02:34:23;;;;;;;38.00;20.00;;;;;;;-0.09;73.34;97985.64;106098;1274;97956;-66
2022/04/03 02:36:52;;;;;;;36.10;19.60;;;;;;;-0.14;73.49;97986.77;106128;1271;111997;-64
2022/04/03 02:39:26;;;;;;;32.60;17.90;;;;;;;-0.14;73.65;97988.86;106160;1271;96047;-65
2022/04/03 02:41:55;;;;;;;31.10;18.50;;;;;;;-0.15;73.55;97989.76;106140;1271;108395;-66
2022/04/03 02:44:25;;;;;;;36.10;17.90;;;;;;;-0.18;73.60;97991.28;106145;1271;97978;-65
2022/04/03 02:46:52;;;;;;;32.90;17.30;;;;;;;-0.17;73.65;97987.95;106144;1271;97836;-64
2022/04/03 02:49:23;;;;;;;30.30;16.70;;;;;;;-0.18;73.56;97989.40;106131;1271;111783;-65
2022/04/03 02:51:53;;;;;;;30.30;15.50;;;;;;;-0.21;73.60;97988.50;106191;1271;97815;-66
2022/04/03 02:54:23;;;;;;;30.80;15.10;;;;;;;-0.25;73.47;97995.48;106148;1270;107774;-65
2022/04/03 02:56:51;;;;;;;28.50;15.20;;;;;;;-0.27;73.59;97998.85;106081;1274;97925;-66
2022/04/03 02:59:20;;;;;;;29.80;14.50;;;;;;;-0.30;73.31;98004.22;106125;1274;97880;-67
2022/04/03 03:01:51;;;;;;;30.70;13.90;;;;;;;-0.34;73.60;98002.83;106166;1271;111930;-67
2022/04/03 03:04:19;;;;;;;26.70;13.80;;;;;;;-0.37;73.66;98009.41;106167;1274;97969;-63
2022/04/03 03:06:47;;;;;;;31.90;14.00;;;;;;;-0.39;73.64;98011.61;106189;1271;108357;-64
2022/04/03 03:09:20;;;;;;;30.80;14.90;;;;;;;-0.39;73.50;98010.05;106211;1271;95294;-65
2022/04/03 03:11:50;;;;;;;28.70;13.80;;;;;;;-0.39;73.72;98012.48;106194;1271;97876;-64
2022/04/03 03:14:19;;;;;;;31.40;13.90;;;;;;;-0.40;73.53;98013.39;106146;1271;112047;-64
2022/04/03 03:16:50;;;;;;;29.10;13.90;;;;;;;-0.41;73.50;98020.58;106172;1271;97880;-63
2022/04/03 03:19:18;;;;;;;33.50;14.00;;;;;;;-0.41;73.67;98023.55;106069;1274;108420;-64
2022/04/03 03:21:46;;;;;;;30.00;14.50;;;;;;;-0.41;73.57;98027.00;106075;1273;97969;-65
2022/04/03 03:24:16;;;;;;;30.00;14.60;;;;;;;-0.41;73.49;98029.29;106061;1273;97957;-66
2022/04/03 03:26:45;;;;;;;30.70;14.50;;;;;;;-0.38;73.77;98027.93;106110;1271;110569;-66
2022/04/03 03:29:14;;;;;;;34.90;15.80;;;;;;;-0.37;73.60;98031.34;106130;1271;97864;-69
2022/04/03 03:31:44;;;;;;;28.90;14.00;;;;;;;-0.36;73.66;98033.94;106115;1271;108374;-67
2022/04/03 03:34:15;;;;;;;32.50;15.50;;;;;;;-0.37;73.42;98033.29;106116;1271;95281;-65
2022/04/03 03:36:42;;;;;;;28.60;13.80;;;;;;;-0.40;73.42;98034.27;106084;1274;97863;-65
2022/04/03 03:39:13;;;;;;;31.60;16.50;;;;;;;-0.41;73.42;98035.05;105904;1274;237880;-65
2022/04/03 03:41:40;;;;;;;33.40;16.30;;;;;;;-0.40;73.51;98036.02;106095;1272;96270;-66
2022/04/03 03:44:11;;;;;;;34.20;16.40;;;;;;;-0.40;73.38;98038.48;106084;1272;108831;-65
2022/04/03 03:46:42;;;;;;;31.50;15.50;;;;;;;-0.41;73.49;98041.65;106051;1274;97987;-64
2022/04/03 03:49:10;;;;;;;31.80;14.60;;;;;;;-0.42;73.28;98047.77;106082;1274;97859;-65
2022/04/03 03:51:39;;;;;;;28.60;14.60;;;;;;;-0.45;73.43;98047.73;106100;1274;112057;-64
2022/04/03 03:54:12;;;;;;;29.00;14.10;;;;;;;-0.45;73.34;98051.91;106080;1274;97893;-65
2022/04/03 03:56:41;;;;;;;30.10;14.80;;;;;;;-0.48;73.30;98051.19;106094;1273;107465;-64
2022/04/03 03:59:09;;;;;;;30.50;14.90;;;;;;;-0.47;73.64;98055.30;106056;1273;97929;-65
2022/04/03 04:01:36;;;;;;;31.50;15.20;;;;;;;-0.46;73.51;98060.83;106088;1274;95246;-66
2022/04/03 04:04:06;;;;;;;30.70;15.80;;;;;;;-0.47;73.37;98062.61;106123;1271;112003;-64
2022/04/03 04:06:34;;;;;;;30.30;13.80;;;;;;;-0.49;73.21;98063.93;106093;1271;97502;-65
2022/04/03 04:09:05;;;;;;;29.90;14.10;;;;;;;-0.51;73.26;98064.04;106106;1274;108295;-66
2022/04/03 04:11:34;;;;;;;31.90;14.90;;;;;;;-0.53;73.19;98070.03;106110;1274;96354;-67
2022/04/03 04:14:04;;;;;;;30.90;14.30;;;;;;;-0.52;73.21;98072.58;106114;1273;98372;-64
2022/04/03 04:16:32;;;;;;;32.30;15.40;;;;;;;-0.51;73.29;98075.00;106070;1274;112071;-66
2022/04/03 04:19:09;;;;;;;30.10;13.70;;;;;;;-0.50;73.42;98077.73;106126;1271;97975;-67
2022/04/03 04:21:38;;;;;;;32.20;15.00;;;;;;;-0.51;73.13;98082.32;106118;1271;107508;-67
2022/04/03 04:24:07;;;;;;;31.80;14.10;;;;;;;-0.54;73.15;98087.31;106109;1271;97917;-66
2022/04/03 04:26:40;;;;;;;30.30;12.90;;;;;;;-0.55;73.10;98097.65;106133;1271;97959;-66
2022/04/03 04:29:08;;;;;;;30.70;14.50;;;;;;;-0.58;73.13;98095.52;106106;1274;111754;-65
2022/04/03 04:31:36;;;;;;;32.20;13.30;;;;;;;-0.60;73.03;98101.67;106079;1271;97966;-66
2022/04/03 04:34:07;;;;;;;29.40;12.80;;;;;;;-0.64;73.05;98106.35;106094;1271;108361;-67
2022/04/03 04:36:35;;;;;;;27.40;12.50;;;;;;;-0.64;73.05;98110.05;106067;1274;97819;-67
2022/04/03 04:39:06;;;;;;;29.80;13.80;;;;;;;-0.65;73.13;98117.73;106138;1271;95247;-65
2022/04/03 04:41:34;;;;;;;26.80;12.90;;;;;;;-0.64;73.06;98122.58;106081;1271;113878;-66
2022/04/03 04:44:07;;;;;;;32.60;13.70;;;;;;;-0.66;72.93;98122.67;106073;1274;95176;-66
2022/04/03 04:46:34;;;;;;;28.80;12.20;;;;;;;-0.70;72.99;98127.54;106050;1274;108208;-66
2022/04/03 04:49:05;;;;;;;29.90;13.00;;;;;;;-0.76;73.03;98131.23;106057;1274;97984;-64
2022/04/03 04:51:35;;;;;;;33.70;15.70;;;;;;;-0.77;72.95;98136.15;106079;1274;98437;-65
2022/04/03 04:54:03;;;;;;;31.50;14.60;;;;;;;-0.77;73.12;98136.33;106056;1272;111976;-65
2022/04/03 04:56:36;;;;;;;33.30;13.70;;;;;;;-0.74;73.10;98136.72;106141;1271;97876;-64
2022/04/03 04:59:04;;;;;;;26.50;12.30;;;;;;;-0.74;73.11;98140.20;106035;1271;108400;-66
2022/04/03 05:01:32;;;;;;;30.20;12.70;;;;;;;-0.79;72.82;98139.20;106028;1274;97839;-65
2022/04/03 05:04:00;;;;;;;27.30;12.60;;;;;;;-0.81;73.08;98142.77;106098;1271;97875;-66
2022/04/03 05:06:35;;;;;;;26.20;12.90;;;;;;;-0.79;73.08;98145.45;106095;1271;112022;-66
2022/04/03 05:09:06;;;;;;;29.60;12.70;;;;;;;-0.79;73.03;98148.27;106071;1271;97868;-65
2022/04/03 05:11:37;;;;;;;28.90;11.90;;;;;;;-0.80;72.84;98148.84;106075;1271;108399;-66
2022/04/03 05:14:06;;;;;;;30.90;12.80;;;;;;;-0.80;73.09;98155.44;106079;1271;95961;-65
2022/04/03 05:16:37;;;;;;;29.30;12.90;;;;;;;-0.78;72.95;98158.30;106131;1271;97946;-66
2022/04/03 05:19:13;;;;;;;28.70;11.60;;;;;;;-0.76;73.06;98164.67;106103;1271;111974;-64
2022/04/03 05:21:44;;;;;;;27.70;10.90;;;;;;;-0.72;73.13;98164.36;106087;1271;98595;-65
2022/04/03 05:24:12;;;;;;;26.00;11.80;;;;;;;-0.73;73.01;98168.72;106039;1274;106692;-68
2022/04/03 05:26:40;;;;;;;31.10;11.70;;;;;;;-0.74;72.79;98171.05;106012;1274;97908;-67
2022/04/03 05:29:10;;;;;;;27.60;11.30;;;;;;;-0.77;72.87;98172.73;106045;1274;97860;-66
2022/04/03 05:31:44;;;;;;;24.20;10.50;;;;;;;-0.77;72.95;98177.95;105979;1274;111997;-66
2022/04/03 05:34:12;;;;;;;26.90;11.40;;;;;;;-0.76;73.03;98177.73;106115;1271;96250;-65
2022/04/03 05:36:43;;;;;;;26.10;11.50;;;;;;;-0.73;72.91;98184.23;106126;1271;108378;-65
2022/04/03 05:39:10;;;;;;;27.00;11.20;;;;;;;-0.74;72.88;98189.67;106049;1273;98676;-67
2022/04/03 05:41:40;;;;;;;25.50;11.30;;;;;;;-0.71;72.87;98193.88;106130;1271;97885;-68
2022/04/03 05:44:09;;;;;;;30.20;10.90;;;;;;;-0.66;72.75;98196.13;106138;1271;112399;-67
2022/04/03 05:46:39;;;;;;;24.80;11.40;;;;;;;-0.63;72.90;98198.98;106139;1271;97953;-66
2022/04/03 05:49:10;;;;;;;25.40;10.60;;;;;;;-0.59;72.90;98201.60;106069;1271;107795;-67
2022/04/03 05:51:37;;;;;;;27.00;11.10;;;;;;;-0.57;72.74;98200.97;106129;1271;97872;-68
2022/04/03 05:54:05;;;;;;;24.20;10.30;;;;;;;-0.52;72.74;98206.54;106074;1271;97862;-67
2022/04/03 05:56:35;;;;;;;25.50;10.90;;;;;;;-0.48;72.84;98206.00;106144;1271;112019;-67
2022/04/03 05:59:03;;;;;;;27.10;10.70;;;;;;;-0.41;72.86;98207.48;106049;1271;96957;-69
2022/04/03 06:01:32;;;;;;;29.40;12.50;;;;;;;-0.34;73.03;98207.71;106044;1274;108371;-68
2022/04/03 06:04:01;;;;;;;28.60;12.30;;;;;;;-0.27;73.05;98214.08;106078;1274;97955;-69
2022/04/03 06:06:31;;;;;;;25.50;10.60;;;;;;;-0.22;72.70;98213.30;105984;1274;97882;-69
2022/04/03 06:08:59;;;;;;;27.30;10.90;;;;;;;-0.21;72.68;98218.14;106054;1271;111912;-67
2022/04/03 06:11:27;;;;;;;23.30;10.40;;;;;;;-0.16;72.77;98219.85;106051;1271;97700;-69
2022/04/03 06:13:58;;;;;;;26.00;10.90;;;;;;;-0.11;72.81;98221.75;106107;1271;108181;-72
2022/04/03 06:16:25;;;;;;;24.40;11.20;;;;;;;-0.09;72.70;98226.70;106236;1271;97824;-67
2022/04/03 06:18:56;;;;;;;23.40;10.30;;;;;;;-0.07;72.73;98229.76;106191;1271;95255;-71
2022/04/03 06:21:26;;;;;;;28.20;12.30;;;;;;;-0.07;72.72;98232.16;106142;1271;111500;-68
2022/04/03 06:23:54;;;;;;;27.40;11.50;;;;;;;-0.11;72.65;98228.52;106188;1271;95883;-69
2022/04/03 06:26:22;;;;;;;27.10;12.40;;;;;;;-0.10;72.59;98230.91;106198;1271;107423;-70
2022/04/03 06:28:50;;;;;;;28.60;11.10;;;;;;;-0.11;72.56;98234.64;106149;1274;97880;-70
2022/04/03 06:31:17;;;;;;;25.00;9.80;;;;;;;-0.09;72.67;98235.43;106191;1274;97879;-70
2022/04/03 06:33:48;;;;;;;24.40;10.60;;;;;;;-0.14;72.37;98235.09;106210;1274;111207;-69
2022/04/03 06:36:16;;;;;;;28.40;11.60;;;;;;;-0.14;72.59;98238.41;106103;1274;97654;-68
2022/04/03 06:38:45;;;;;;;28.00;11.30;;;;;;;-0.13;72.51;98236.11;106147;1273;109009;-69
2022/04/03 06:41:13;;;;;;;25.70;10.50;;;;;;;-0.11;72.60;98242.27;106088;1271;98487;-69
2022/04/03 06:43:41;;;;;;;22.60;9.70;;;;;;;-0.00;72.66;98244.29;106149;1271;97945;-69
2022/04/03 06:46:12;;;;;;;25.90;11.60;;;;;;;0.10;72.68;98245.93;106091;1271;112318;-70
2022/04/03 06:48:41;;;;;;;24.20;9.90;;;;;;;0.18;72.54;98251.17;106161;1271;97951;-70
2022/04/03 06:51:09;;;;;;;25.80;10.90;;;;;;;0.26;72.61;98256.58;106129;1271;106141;-68
2022/04/03 06:53:37;;;;;;;23.50;10.30;;;;;;;0.24;72.42;98262.21;106092;1271;96323;-69
2022/04/03 06:56:07;;;;;;;25.70;9.30;;;;;;;0.31;72.45;98266.83;106148;1271;96333;-69
2022/04/03 06:58:37;;;;;;;23.80;9.80;;;;;;;0.39;72.74;98266.84;106067;1274;112055;-68
2022/04/03 07:01:06;;;;;;;22.80;10.20;;;;;;;0.42;72.33;98269.48;106060;1274;97717;-69
2022/04/03 07:03:36;;;;;;;24.50;11.00;;;;;;;0.42;72.16;98273.51;106067;1274;108227;-68
2022/04/03 07:06:07;;;;;;;24.10;9.70;;;;;;;0.50;72.49;98274.57;106120;1271;97819;-67
2022/04/03 07:08:35;;;;;;;25.60;9.50;;;;;;;0.56;72.27;98281.77;106356;1271;97892;-69
2022/04/03 07:11:03;;;;;;;23.80;9.90;;;;;;;0.65;72.43;98282.77;106225;1271;111323;-69
2022/04/03 07:13:34;;;;;;;24.00;9.40;;;;;;;0.77;72.33;98284.89;106128;1271;98309;-70
2022/04/03 07:16:02;;;;;;;25.10;10.50;;;;;;;0.81;72.34;98290.95;106194;1270;107749;-71
2022/04/03 07:18:31;;;;;;;22.20;10.00;;;;;;;0.83;72.10;98291.06;106227;1271;97872;-71
2022/04/03 07:21:00;;;;;;;23.10;9.90;;;;;;;0.93;72.28;98299.34;106140;1271;97489;-73
2022/04/03 07:23:28;;;;;;;23.60;10.40;;;;;;;1.06;72.50;98304.17;106141;1271;111765;-71
2022/04/03 07:25:56;;;;;;;26.30;10.00;;;;;;;1.13;72.16;98308.57;106177;1271;95774;-70
2022/04/03 07:28:24;;;;;;;22.10;9.20;;;;;;;1.17;72.12;98307.34;106152;1271;108748;-73
2022/04/03 07:30:52;;;;;;;24.10;10.00;;;;;;;1.24;71.98;98303.53;106208;1271;97950;-71
2022/04/03 07:33:20;;;;;;;23.60;10.70;;;;;;;1.37;71.81;98306.73;106128;1271;97829;-70
2022/04/03 07:35:53;;;;;;;27.60;10.10;;;;;;;1.66;71.94;98309.41;106179;1274;111923;-71
2022/04/03 07:38:21;;;;;;;25.80;10.80;;;;;;;1.99;72.50;98308.66;106099;1274;96237;-70
2022/04/03 07:40:49;;;;;;;24.10;11.00;;;;;;;2.25;72.50;98315.05;106107;1274;107357;-69
2022/04/03 07:43:23;;;;;;;24.90;11.10;;;;;;;2.43;72.30;98316.07;106049;1274;97837;-67
2022/04/03 07:45:54;;;;;;;22.90;10.40;;;;;;;2.66;72.00;98316.81;106113;1274;97847;-67
2022/04/03 07:48:22;;;;;;;23.00;9.80;;;;;;;2.89;71.96;98315.45;106204;1271;111428;-68
2022/04/03 07:50:52;;;;;;;33.40;16.40;;;;;;;3.13;71.61;98316.27;106131;1271;97942;-67
2022/04/03 07:53:22;;;;;;;28.40;12.30;;;;;;;3.48;72.15;98317.89;106136;1271;109246;-68
2022/04/03 07:55:56;;;;;;;26.40;10.70;;;;;;;3.77;71.90;98320.32;106127;1274;97986;-69
2022/04/03 07:58:25;;;;;;;25.90;10.30;;;;;;;3.88;71.29;98320.19;106175;1271;97858;-68
2022/04/03 08:00:57;;;;;;;21.40;9.70;;;;;;;4.07;71.68;98320.53;106128;1271;112046;-69
2022/04/03 08:03:29;;;;;;;25.50;10.20;;;;;;;4.08;70.39;98329.20;106216;1271;95183;-67
2022/04/03 08:05:58;;;;;;;26.60;10.90;;;;;;;3.63;69.68;98334.94;106216;1274;107763;-67
2022/04/03 08:08:26;;;;;;;23.60;10.90;;;;;;;3.34;70.72;98344.73;106140;1271;98036;-68
2022/04/03 08:10:54;;;;;;;23.50;10.70;;;;;;;3.09;70.42;98342.60;106115;1271;97876;-68
2022/04/03 08:13:23;;;;;;;23.30;11.10;;;;;;;2.73;70.73;98350.59;106230;1272;112063;-67
2022/04/03 08:15:54;;;;;;;30.10;13.90;;;;;;;2.58;70.97;98353.64;106233;1272;97950;-70
2022/04/03 08:18:25;;;;;;;28.70;12.60;;;;;;;2.80;71.35;98358.98;106096;1274;106594;-67
2022/04/03 08:20:54;;;;;;;26.40;12.00;;;;;;;3.02;70.86;98358.74;106257;1272;98576;-67
2022/04/03 08:23:21;;;;;;;28.90;13.50;;;;;;;3.19;71.36;98358.33;106150;1274;95197;-67
2022/04/03 08:25:51;;;;;;;26.70;11.70;;;;;;;3.47;70.92;98361.39;106178;1274;111993;-71
2022/04/03 08:28:19;;;;;;;25.70;11.30;;;;;;;3.43;69.95;98370.05;106213;1274;98635;-68
2022/04/03 08:30:50;;;;;;;23.60;10.10;;;;;;;3.19;70.21;98371.53;106083;1274;108365;-69
2022/04/03 08:33:21;;;;;;;25.30;11.40;;;;;;;3.00;69.74;98382.69;105955;1271;97704;-69
2022/04/03 08:35:51;;;;;;;24.90;10.90;;;;;;;2.90;69.81;98380.91;106121;1274;97969;-68
2022/04/03 08:38:22;;;;;;;20.60;9.20;;;;;;;3.06;70.89;98380.42;106160;1274;112134;-69
2022/04/03 08:40:52;;;;;;;23.40;10.50;;;;;;;3.52;71.11;98382.14;106264;1271;96211;-67
2022/04/03 08:43:23;;;;;;;22.20;10.20;;;;;;;3.70;70.44;98385.55;106210;1271;107776;-69
2022/04/03 08:45:53;;;;;;;23.60;11.10;;;;;;;3.50;69.86;98383.49;106246;1274;98052;-67
2022/04/03 08:48:26;;;;;;;28.30;12.30;;;;;;;3.26;70.08;98390.58;106108;1272;95294;-68
2022/04/03 08:50:57;;;;;;;23.30;10.80;;;;;;;3.17;70.17;98395.44;106147;1271;112013;-67
2022/04/03 08:53:32;;;;;;;23.60;11.00;;;;;;;3.32;69.93;98396.20;106181;1271;97714;-67
2022/04/03 08:56:00;;;;;;;26.00;11.20;;;;;;;3.53;69.98;98398.77;106057;1274;107748;-68
2022/04/03 08:58:33;;;;;;;24.20;11.50;;;;;;;3.76;69.96;98400.86;106060;1275;98055;-69
2022/04/03 09:01:04;;;;;;;23.20;10.00;;;;;;;4.13;69.89;98402.80;106137;1271;97873;-69
2022/04/03 09:03:32;;;;;;;22.70;10.50;;;;;;;4.35;69.83;98401.03;106188;1271;112071;-68
2022/04/03 09:06:19;;;;;;;22.00;9.30;;;;;;;4.63;70.11;98400.83;106182;1273;95205;-67
2022/04/03 09:08:50;;;;;;;22.20;10.50;;;;;;;4.89;69.57;98404.76;106186;1273;107608;-68
2022/04/03 09:11:19;;;;;;;24.80;9.80;;;;;;;4.87;68.73;98401.36;106130;1271;97760;-67
2022/04/03 09:13:49;;;;;;;22.30;9.70;;;;;;;4.70;69.40;98403.40;106108;1274;97851;-68
2022/04/03 09:16:17;;;;;;;21.00;9.40;;;;;;;4.60;68.18;98406.11;106141;1274;112016;-68
2022/04/03 09:18:53;;;;;;;22.10;10.00;;;;;;;4.44;68.51;98411.62;106069;1271;97848;-69
2022/04/03 09:21:26;;;;;;;;;;;;;;;4.39;69.41;98415.41;106151;1274;107511;-67
2022/04/03 09:24:11;;;;;;;25.80;10.40;;;;;;;4.39;69.47;98413.48;106164;1274;97946;-67
2022/04/03 09:26:40;;;;;;;22.60;9.30;;;;;;;4.55;69.98;98415.17;106181;1271;97933;-68
2022/04/03 09:29:17;;;;;;;22.80;9.80;;;;;;;4.74;68.64;98414.77;106179;1271;111300;-69
2022/04/03 09:31:48;;;;;;;24.00;10.50;;;;;;;4.44;68.45;98420.18;106087;1271;95217;-67
2022/04/03 09:34:20;;;;;;;22.10;9.50;;;;;;;4.50;68.91;98422.32;105979;1271;109208;-67
2022/04/03 09:37:01;;;;;;;21.00;8.60;;;;;;;4.75;68.82;98421.22;106007;1274;95369;-67
2022/04/03 09:39:32;;;;;;;21.30;9.10;;;;;;;5.07;69.49;98424.43;106113;1270;97832;-68
2022/04/03 09:42:12;;;;;;;21.90;9.50;;;;;;;5.35;69.63;98424.30;106131;1271;113235;-66
2022/04/03 09:44:45;;;;;;;19.40;8.30;;;;;;;5.63;68.40;98429.27;106141;1274;98046;-68
2022/04/03 09:47:33;;;;;;;26.30;10.40;;;;;;;5.67;67.93;98425.85;106144;1274;108402;-69
2022/04/03 09:50:05;;;;;;;20.40;8.40;;;;;;;5.37;68.07;98430.36;106227;1271;98567;-67
2022/04/03 09:52:41;;;;;;;16.30;7.80;;;;;;;5.39;68.95;98428.63;106021;1274;96458;-67
2022/04/03 09:55:24;;;;;;;20.90;9.20;;;;;;;5.44;68.19;98434.69;106013;1274;112048;-67
2022/04/03 09:58:04;;;;;;;20.30;9.00;;;;;;;5.22;67.76;98438.44;106092;1271;97880;-70
2022/04/03 10:00:48;;;;;;;20.80;9.40;;;;;;;5.18;68.48;98439.20;106058;1273;107321;-66
2022/04/03 10:03:20;;;;;;;23.30;10.10;;;;;;;5.13;68.96;98447.09;106133;1271;97886;-66
2022/04/03 10:05:52;;;;;;;21.20;9.10;;;;;;;4.95;66.80;98453.94;106109;1271;97966;-67
2022/04/03 10:08:23;;;;;;;21.10;9.00;;;;;;;4.59;67.10;98457.95;106096;1271;112051;-69
2022/04/03 10:10:55;;;;;;;19.50;8.30;;;;;;;4.31;67.63;98457.23;106036;1271;96981;-63
2022/04/03 10:13:25;;;;;;;19.10;9.20;;;;;;;4.18;67.42;98464.30;106074;1270;107693;-65
2022/04/03 10:15:54;;;;;;;25.00;10.20;;;;;;;4.02;66.02;98462.59;106091;1271;97947;-65
2022/04/03 10:18:24;;;;;;;25.50;11.00;;;;;;;3.78;66.42;98470.71;106134;1271;95265;-66
2022/04/03 10:20:54;;;;;;;22.80;10.00;;;;;;;3.61;67.49;98472.35;106025;1271;111915;-67
2022/04/03 10:23:26;;;;;;;22.10;9.70;;;;;;;3.51;67.67;98471.27;106107;1271;97957;-68
2022/04/03 10:25:58;;;;;;;27.00;11.20;;;;;;;3.46;67.91;98478.02;106060;1271;108509;-67
2022/04/03 10:28:27;;;;;;;23.60;10.20;;;;;;;3.35;67.51;98474.04;106149;1271;96374;-69
2022/04/03 10:31:07;;;;;;;23.70;10.00;;;;;;;3.18;67.04;98477.02;106181;1271;95270;-68
2022/04/03 10:33:39;;;;;;;27.60;11.40;;;;;;;3.12;66.56;98478.52;106199;1274;111360;-68
2022/04/03 10:36:13;;;;;;;23.80;10.70;;;;;;;3.02;66.04;98475.56;106113;1271;97870;-67
2022/04/03 10:38:55;;;;;;;24.50;10.10;;;;;;;2.90;66.91;98473.34;106170;1271;107782;-69
2022/04/03 10:41:31;;;;;;;22.50;8.50;;;;;;;2.89;66.53;98478.31;106187;1270;97880;-69
2022/04/03 10:44:25;;;;;;;22.80;8.90;;;;;;;3.07;67.73;98476.73;106046;1274;96983;-68
2022/04/03 10:47:05;;;;;;;22.40;9.80;;;;;;;3.33;67.97;98476.08;106117;1274;112012;-67
2022/04/03 10:49:40;;;;;;;26.40;12.00;;;;;;;3.52;67.42;98477.33;106179;1274;97969;-68
2022/04/03 10:52:24;;;;;;;21.80;10.00;;;;;;;3.54;66.82;98473.06;106056;1271;108356;-67
2022/04/03 10:54:57;;;;;;;23.40;10.10;;;;;;;3.42;65.80;98476.16;106082;1271;96460;-69
2022/04/03 10:57:46;;;;;;;21.50;9.60;;;;;;;3.34;66.28;98477.06;106134;1271;96994;-65
2022/04/03 11:00:14;;;;;;;21.50;8.70;;;;;;;3.33;65.57;98476.62;106021;1271;111867;-70
2022/04/03 11:02:51;;;;;;;20.40;8.20;;;;;;;3.32;66.75;98481.73;106150;1274;97912;-67
2022/04/03 11:05:22;;;;;;;20.20;9.00;;;;;;;3.47;67.02;98485.67;106209;1274;107813;-68
2022/04/03 11:07:59;;;;;;;19.90;8.40;;;;;;;3.59;67.17;98481.20;106096;1271;97979;-68
2022/04/03 11:11:01;;;;;;;20.30;8.60;;;;;;;3.67;67.37;98484.98;106092;1271;97948;-66
2022/04/03 11:13:29;;;;;;;22.70;7.80;;;;;;;3.69;66.55;98485.56;106042;1271;112088;-66
2022/04/03 11:16:10;;;;;;;21.90;9.30;;;;;;;3.67;66.51;98484.65;106135;1271;96327;-69
2022/04/03 11:18:50;;;;;;;22.90;9.90;;;;;;;3.82;66.91;98487.66;106073;1271;108478;-69
2022/04/03 11:21:25;;;;;;;19.40;8.40;;;;;;;3.95;66.60;98488.94;106114;1271;95268;-67
2022/04/03 11:24:08;;;;;;;21.30;9.60;;;;;;;3.81;65.94;98494.91;106088;1271;98042;-67
2022/04/03 11:26:39;;;;;;;19.50;8.00;;;;;;;3.82;66.52;98494.71;106122;1273;111463;-67
2022/04/03 11:29:10;;;;;;;23.70;8.80;;;;;;;3.89;66.66;98495.37;106174;1274;98596;-65
2022/04/03 11:31:41;;;;;;;18.70;8.20;;;;;;;3.84;66.70;98498.08;106137;1274;107371;-65